Limestone, New York
Current Conditions -  °F | °C
As of 8:17 AM on Thursday 30 Oct 2014 (Local Time) from KBFD Reporting Station
Overcast Overcast  
Wind Chill: 34°   Ceiling: 2100
Heat Index: 39°   Visibility: 10mi
Dew Point: 36°   Wind: 7mph
Humidity: 89%   Direction: 280°W
Pressure: 30.03"   Gusts: NA
Location:  42.03°N, 78.63°W
Report Text: KBFD 301217Z AUTO 28006KT 10SM SCT015 BKN021 OVC037 04/02 A3003 RMK AO2 RAE01 P0000 T00390022
Loading
Personal Weather Stations






























Interactive Weather Map
Tropical Storm Tracking
New forecast layout! Learn more

10-Day Weather Forecast

Advertisements
Track Severe Weather on mobile